createdAt,value
2023-03-06T00:01:18.314Z,69.21
2023-03-06T00:03:57.196Z,68.93
2023-03-06T00:06:43.919Z,69.07
2023-03-06T00:09:20.750Z,69.03
2023-03-06T00:11:58.214Z,69.11
2023-03-06T00:14:40.015Z,69.17
2023-03-06T00:17:22.522Z,69.17
2023-03-06T00:20:02.210Z,69.13
2023-03-06T00:22:45.014Z,68.96
2023-03-06T00:25:26.075Z,69.16
2023-03-06T00:28:01.573Z,69.03
2023-03-06T00:30:41.730Z,68.95
2023-03-06T00:36:06.482Z,69.28
2023-03-06T00:38:54.007Z,69.86
2023-03-06T00:41:33.870Z,69.87
2023-03-06T00:44:15.387Z,69.58
2023-03-06T00:47:05.925Z,69.62
2023-03-06T00:49:39.131Z,69.54
2023-03-06T00:52:18.424Z,69.88
2023-03-06T00:54:58.797Z,70.33
2023-03-06T00:57:41.361Z,70.67
2023-03-06T01:00:27.722Z,71.01
2023-03-06T01:03:02.049Z,71.12
2023-03-06T01:05:43.977Z,71.33
2023-03-06T01:08:30.473Z,71.12
2023-03-06T01:11:14.822Z,71.15
2023-03-06T01:13:58.332Z,71.12
2023-03-06T01:16:35.634Z,71.24
2023-03-06T01:19:13.268Z,71.09
2023-03-06T01:21:53.538Z,70.63
2023-03-06T01:24:33.322Z,70.90
2023-03-06T01:27:26.362Z,70.94
2023-03-06T01:30:02.693Z,71.14
2023-03-06T01:32:43.044Z,71.21
2023-03-06T01:35:20.995Z,71.36
2023-03-06T01:37:57.421Z,71.25
2023-03-06T01:40:39.971Z,71.19
2023-03-06T01:43:41.900Z,71.63
2023-03-06T01:46:43.670Z,71.43
2023-03-06T01:49:49.506Z,71.75
2023-03-06T01:52:26.237Z,71.61
2023-03-06T01:55:07.784Z,71.47
2023-03-06T01:57:51.445Z,71.30
2023-03-06T02:00:32.696Z,71.09
2023-03-06T02:03:15.498Z,71.27
2023-03-06T02:05:55.154Z,71.28
2023-03-06T02:08:32.421Z,71.68
2023-03-06T02:11:22.390Z,71.84
2023-03-06T02:14:02.323Z,72.14
2023-03-06T02:16:50.286Z,72.23
2023-03-06T02:19:42.354Z,72.35
2023-03-06T02:22:22.198Z,72.31
2023-03-06T02:25:09.875Z,72.36
2023-03-06T02:27:51.895Z,72.15
2023-03-06T02:30:35.500Z,72.08
2023-03-06T02:33:15.313Z,72.18
2023-03-06T02:35:57.275Z,72.07
2023-03-06T02:38:41.244Z,72.14
2023-03-06T02:41:20.585Z,72.04
2023-03-06T02:44:07.699Z,71.87
2023-03-06T02:46:53.154Z,71.85
2023-03-06T02:49:31.053Z,71.84
2023-03-06T02:52:08.313Z,71.68
2023-03-06T02:54:43.397Z,72.04
2023-03-06T02:57:28.228Z,71.98
2023-03-06T03:00:16.510Z,72.05
2023-03-06T03:02:54.979Z,72.07
2023-03-06T03:05:51.184Z,71.95
2023-03-06T03:11:24.435Z,71.89
2023-03-06T03:14:03.835Z,72.16
2023-03-06T03:16:53.134Z,72.07
2023-03-06T03:19:35.402Z,72.04
2023-03-06T03:22:19.421Z,72.33
2023-03-06T03:24:54.886Z,72.20
2023-03-06T03:27:30.043Z,72.31
2023-03-06T03:30:08.882Z,72.26
2023-03-06T03:32:54.315Z,72.32
2023-03-06T03:35:31.452Z,72.39
2023-03-06T03:38:10.484Z,72.61
2023-03-06T03:40:46.917Z,72.58
2023-03-06T03:43:28.849Z,72.81
2023-03-06T03:46:11.950Z,72.85
2023-03-06T03:48:59.735Z,72.90
2023-03-06T03:51:40.819Z,72.73
2023-03-06T03:54:19.087Z,72.76
2023-03-06T03:57:02.547Z,72.78
2023-03-06T03:59:41.764Z,72.36
2023-03-06T04:02:41.815Z,72.03
2023-03-06T04:05:38.593Z,72.05
2023-03-06T04:08:27.510Z,71.98
2023-03-06T04:11:07.860Z,72.35
2023-03-06T04:13:46.116Z,72.31
2023-03-06T04:16:36.064Z,72.43
2023-03-06T04:19:25.947Z,72.46
2023-03-06T04:22:02.481Z,72.55
2023-03-06T04:24:47.853Z,72.71
2023-03-06T04:27:28.358Z,72.46
2023-03-06T04:30:10.763Z,72.58
2023-03-06T04:33:05.248Z,72.83
2023-03-06T04:35:42.842Z,72.99
2023-03-06T04:38:37.492Z,72.57
2023-03-06T04:41:17.816Z,72.70
2023-03-06T04:44:01.593Z,72.54
2023-03-06T04:46:42.667Z,72.53
2023-03-06T04:49:17.765Z,72.67
2023-03-06T04:51:50.933Z,72.53
2023-03-06T04:54:30.103Z,72.69
2023-03-06T04:57:04.200Z,72.61
2023-03-06T04:59:42.430Z,72.88
2023-03-06T05:02:18.264Z,73.04
2023-03-06T05:04:57.758Z,73.47
2023-03-06T05:07:51.709Z,73.67
2023-03-06T05:10:27.053Z,74.06
2023-03-06T05:13:07.950Z,74.56
2023-03-06T05:15:46.997Z,74.56
2023-03-06T05:18:23.125Z,74.39
2023-03-06T05:21:02.360Z,74.16
2023-03-06T05:23:43.351Z,74.33
2023-03-06T05:29:17.205Z,74.25
2023-03-06T05:31:55.701Z,73.76
2023-03-06T05:34:31.786Z,73.57
2023-03-06T05:37:06.996Z,73.89
2023-03-06T05:39:58.021Z,73.94
2023-03-06T05:42:52.916Z,73.92
2023-03-06T05:45:33.374Z,74.17
2023-03-06T05:48:16.515Z,74.14
2023-03-06T05:51:06.239Z,74.19
2023-03-06T05:53:42.962Z,74.20
2023-03-06T05:56:20.864Z,73.94
2023-03-06T05:59:09.784Z,74.03
2023-03-06T06:01:45.489Z,74.31
2023-03-06T06:04:33.562Z,74.59
2023-03-06T06:07:08.027Z,74.74
2023-03-06T06:09:40.221Z,74.74
2023-03-06T06:12:17.649Z,74.68
2023-03-06T06:15:04.616Z,74.37
2023-03-06T06:17:46.685Z,74.54
2023-03-06T06:20:24.319Z,74.26
2023-03-06T06:22:56.167Z,74.27
2023-03-06T06:25:34.192Z,74.03
2023-03-06T06:28:08.652Z,73.66
2023-03-06T06:30:56.315Z,73.72
2023-03-06T06:33:30.565Z,73.10
2023-03-06T06:36:09.566Z,72.82
2023-03-06T06:38:46.885Z,72.42
2023-03-06T06:41:50.633Z,71.83
2023-03-06T06:44:22.065Z,70.54
2023-03-06T06:47:24.530Z,69.78
2023-03-06T06:50:03.960Z,69.45
2023-03-06T06:52:43.860Z,69.79
2023-03-06T06:55:19.880Z,70.08
2023-03-06T06:58:01.332Z,70.14
2023-03-06T07:00:40.230Z,70.76
2023-03-06T07:03:30.137Z,71.69
2023-03-06T07:06:07.709Z,71.80
2023-03-06T07:08:39.405Z,71.24
2023-03-06T07:11:29.114Z,71.15
2023-03-06T07:14:09.312Z,69.58
2023-03-06T07:16:44.220Z,69.26
2023-03-06T07:19:29.697Z,68.77
2023-03-06T07:22:24.174Z,68.29
2023-03-06T07:25:00.771Z,67.29
2023-03-06T07:27:42.572Z,66.79
2023-03-06T07:30:18.518Z,65.35
2023-03-06T07:32:55.856Z,64.04
2023-03-06T07:35:45.245Z,62.65
2023-03-06T07:38:24.664Z,62.24
2023-03-06T07:41:01.084Z,62.23
2023-03-06T07:43:35.805Z,61.36
2023-03-06T07:46:20.860Z,58.69
2023-03-06T07:48:57.807Z,58.37
2023-03-06T07:51:36.473Z,58.50
2023-03-06T07:54:14.990Z,57.65
2023-03-06T07:56:46.836Z,58.47
2023-03-06T07:59:21.326Z,57.77
2023-03-06T08:01:57.237Z,57.78
2023-03-06T08:04:36.226Z,56.41
2023-03-06T08:07:20.970Z,56.09
2023-03-06T08:09:58.733Z,55.90
2023-03-06T08:12:39.097Z,55.31
2023-03-06T08:15:26.549Z,54.90
2023-03-06T08:18:10.697Z,55.13
2023-03-06T08:20:43.219Z,52.75
2023-03-06T08:23:33.991Z,52.28
2023-03-06T08:26:13.086Z,52.57
2023-03-06T08:28:51.163Z,50.31
2023-03-06T08:31:31.761Z,49.85
2023-03-06T08:34:09.973Z,49.65
2023-03-06T08:36:52.596Z,50.09
2023-03-06T08:39:40.566Z,49.48
2023-03-06T08:42:20.844Z,48.66
2023-03-06T08:45:01.053Z,47.06
2023-03-06T08:47:39.579Z,46.31
2023-03-06T08:50:32.556Z,46.44
2023-03-06T08:53:10.679Z,46.63
2023-03-06T08:56:05.559Z,46.87
2023-03-06T08:58:46.629Z,47.52
2023-03-06T09:01:25.103Z,46.51
2023-03-06T09:03:59.583Z,45.33
2023-03-06T09:06:40.957Z,46.40
2023-03-06T09:09:21.135Z,45.15
2023-03-06T09:12:01.138Z,45.29
2023-03-06T09:14:40.891Z,45.83
2023-03-06T09:17:17.495Z,44.74
2023-03-06T09:19:55.372Z,44.39
2023-03-06T09:22:42.716Z,44.60
2023-03-06T09:25:24.209Z,43.51
2023-03-06T09:28:11.338Z,43.31
2023-03-06T09:30:54.481Z,43.84
2023-03-06T09:33:29.527Z,44.54
2023-03-06T09:36:11.273Z,44.82
2023-03-06T09:38:48.342Z,45.50
2023-03-06T09:41:38.721Z,43.92
2023-03-06T09:44:29.053Z,43.90
2023-03-06T09:48:02.490Z,43.18
2023-03-06T09:50:55.551Z,43.85
2023-03-06T09:53:46.305Z,43.36
2023-03-06T09:56:23.596Z,44.29
2023-03-06T09:59:04.946Z,43.40
2023-03-06T10:01:58.769Z,42.21
2023-03-06T10:04:42.864Z,41.43
2023-03-06T10:07:26.889Z,42.30
2023-03-06T10:10:11.972Z,42.17
2023-03-06T10:13:04.755Z,41.16
2023-03-06T10:15:43.698Z,39.97
2023-03-06T10:21:51.495Z,41.29
2023-03-06T10:25:04.626Z,40.88
2023-03-06T10:27:52.998Z,40.53
2023-03-06T10:30:50.939Z,39.71
2023-03-06T10:33:47.128Z,40.69
2023-03-06T10:36:25.706Z,39.86
2023-03-06T10:39:07.809Z,40.53
2023-03-06T10:41:45.296Z,41.11
2023-03-06T10:44:29.168Z,40.74
2023-03-06T10:47:08.105Z,40.25
2023-03-06T10:50:06.674Z,40.77
2023-03-06T10:52:44.032Z,40.25
2023-03-06T10:55:41.843Z,40.03
2023-03-06T10:58:30.609Z,39.49
2023-03-06T11:01:12.538Z,38.05
2023-03-06T11:03:58.076Z,38.66
2023-03-06T11:06:44.146Z,39.90
2023-03-06T11:09:26.018Z,39.60
2023-03-06T11:12:28.343Z,39.66
2023-03-06T11:15:22.698Z,39.75
2023-03-06T11:18:09.273Z,40.04
2023-03-06T11:20:56.940Z,38.86
2023-03-06T11:24:15.226Z,38.64
2023-03-06T11:27:08.625Z,38.45
2023-03-06T11:29:48.169Z,38.29
2023-03-06T11:32:36.311Z,38.40
2023-03-06T11:35:29.879Z,37.46
2023-03-06T11:38:15.720Z,36.69
2023-03-06T11:41:04.387Z,37.77
2023-03-06T11:43:42.792Z,37.36
2023-03-06T11:46:25.577Z,37.99
2023-03-06T11:49:12.545Z,37.93
2023-03-06T11:51:55.141Z,38.15
2023-03-06T11:54:32.454Z,38.93
2023-03-06T11:57:26.875Z,37.81
2023-03-06T12:00:23.747Z,38.05
2023-03-06T12:03:30.807Z,37.78
2023-03-06T12:06:20.055Z,38.54
2023-03-06T12:09:10.156Z,38.04
2023-03-06T12:11:50.576Z,36.97
2023-03-06T12:14:54.185Z,36.59
2023-03-06T12:18:00.658Z,37.75
2023-03-06T12:21:11.071Z,37.65
2023-03-06T12:24:07.368Z,36.94
2023-03-06T12:27:02.968Z,35.84
2023-03-06T12:30:02.397Z,33.76
2023-03-06T12:32:59.379Z,36.50
2023-03-06T12:36:24.990Z,36.55
2023-03-06T12:39:24.483Z,36.50
2023-03-06T12:42:47.725Z,35.84
2023-03-06T12:45:34.224Z,35.10
2023-03-06T12:48:08.880Z,35.91
2023-03-06T12:50:57.340Z,35.46
2023-03-06T12:53:32.954Z,36.17
2023-03-06T12:56:07.950Z,35.67
2023-03-06T12:58:55.558Z,37.24
2023-03-06T13:02:09.241Z,36.18
2023-03-06T13:05:10.978Z,36.58
2023-03-06T13:08:05.264Z,37.80
2023-03-06T13:10:42.926Z,37.00
2023-03-06T13:13:34.986Z,36.38
2023-03-06T13:16:28.925Z,36.08
2023-03-06T13:19:23.272Z,34.04
2023-03-06T13:22:22.116Z,35.24
2023-03-06T13:25:40.030Z,33.65
2023-03-06T13:28:30.341Z,32.67
2023-03-06T13:31:18.112Z,33.37
2023-03-06T13:34:09.876Z,34.14
2023-03-06T13:36:45.303Z,35.37
2023-03-06T13:39:26.825Z,35.60
2023-03-06T13:42:02.937Z,34.90
2023-03-06T13:44:55.336Z,35.13
2023-03-06T13:48:14.195Z,35.13
2023-03-06T13:50:45.627Z,34.21
2023-03-06T13:54:07.756Z,36.45
2023-03-06T13:57:40.559Z,35.06
2023-03-06T14:01:04.491Z,35.02
2023-03-06T14:04:09.247Z,34.47
2023-03-06T14:07:13.132Z,34.95
2023-03-06T14:10:06.084Z,35.67
2023-03-06T14:12:48.064Z,35.52
2023-03-06T14:15:28.444Z,35.41
2023-03-06T14:18:05.942Z,36.14
2023-03-06T14:20:49.806Z,36.65
2023-03-06T14:23:44.020Z,37.41
2023-03-06T14:26:23.333Z,35.65
2023-03-06T14:29:06.625Z,35.93
2023-03-06T14:31:46.383Z,35.83
2023-03-06T14:34:27.811Z,35.85
2023-03-06T14:37:08.032Z,35.23
2023-03-06T14:39:50.327Z,35.23
2023-03-06T14:42:24.318Z,35.37
2023-03-06T14:45:28.125Z,36.01
2023-03-06T14:48:08.488Z,36.75
2023-03-06T14:50:49.481Z,36.74
2023-03-06T14:53:23.904Z,37.50
2023-03-06T14:56:06.446Z,37.66
2023-03-06T14:58:48.413Z,37.13
2023-03-06T15:01:45.842Z,38.26
2023-03-06T15:04:35.271Z,39.17
2023-03-06T15:07:16.844Z,38.96
2023-03-06T15:09:53.808Z,39.11
2023-03-06T15:12:46.466Z,39.31
2023-03-06T15:19:03.234Z,39.53
2023-03-06T15:21:43.206Z,39.15
2023-03-06T15:24:39.137Z,38.79
2023-03-06T15:27:25.646Z,37.99
2023-03-06T15:30:05.644Z,37.45
2023-03-06T15:32:52.227Z,36.29
2023-03-06T15:35:53.068Z,36.59
2023-03-06T15:38:40.273Z,36.03
2023-03-06T15:41:24.821Z,36.69
2023-03-06T15:44:03.427Z,37.12
2023-03-06T15:46:38.347Z,37.27
2023-03-06T15:49:24.003Z,37.53
2023-03-06T15:52:09.542Z,38.11
2023-03-06T15:54:44.823Z,37.92
2023-03-06T15:57:25.649Z,37.53
2023-03-06T15:59:56.691Z,38.42
2023-03-06T16:02:31.837Z,38.64
2023-03-06T16:05:03.189Z,39.23
2023-03-06T16:07:49.675Z,40.00
2023-03-06T16:10:30.089Z,40.05
2023-03-06T16:13:13.349Z,39.80
2023-03-06T16:15:57.570Z,40.43
2023-03-06T16:18:27.941Z,40.46
2023-03-06T16:21:02.275Z,40.08
2023-03-06T16:23:50.910Z,40.05
2023-03-06T16:29:32.006Z,40.54
2023-03-06T16:32:06.873Z,40.84
2023-03-06T16:34:39.342Z,41.17
2023-03-06T16:37:19.666Z,41.64
2023-03-06T16:40:07.034Z,40.91
2023-03-06T16:42:42.367Z,41.50
2023-03-06T16:45:21.391Z,42.20
2023-03-06T16:47:54.701Z,41.65
2023-03-06T16:50:32.205Z,41.10
2023-03-06T16:53:16.183Z,41.53
2023-03-06T16:56:00.357Z,41.74
2023-03-06T16:58:38.218Z,41.10
2023-03-06T17:01:12.045Z,41.23
2023-03-06T17:03:47.649Z,41.38
2023-03-06T17:06:21.064Z,41.26
2023-03-06T17:08:59.728Z,41.44
2023-03-06T17:11:46.122Z,41.87
2023-03-06T17:14:24.304Z,41.60
2023-03-06T17:16:59.263Z,41.82
2023-03-06T17:19:31.054Z,41.77
2023-03-06T17:22:07.233Z,41.26
2023-03-06T17:24:47.597Z,88.19
2023-03-06T17:27:31.070Z,81.44
2023-03-06T17:30:07.344Z,68.38
2023-03-06T17:32:37.766Z,65.04
2023-03-06T17:35:15.888Z,51.13
2023-03-06T17:37:50.008Z,45.81
2023-03-06T17:40:31.921Z,45.36
2023-03-06T17:43:06.105Z,44.43
2023-03-06T17:45:55.708Z,47.61
2023-03-06T17:48:28.260Z,44.62
2023-03-06T17:51:06.140Z,42.29
2023-03-06T17:53:37.093Z,44.09
2023-03-06T17:56:18.522Z,44.96
2023-03-06T17:59:02.532Z,41.32
2023-03-06T18:01:41.201Z,39.00
2023-03-06T18:04:22.022Z,36.37
2023-03-06T18:07:02.753Z,35.22
2023-03-06T18:09:32.816Z,35.48
2023-03-06T18:12:07.536Z,36.52
2023-03-06T18:14:43.320Z,36.85
2023-03-06T18:17:16.909Z,37.63
2023-03-06T18:19:54.387Z,39.01
2023-03-06T18:22:45.046Z,40.16
2023-03-06T18:25:19.700Z,40.81
2023-03-06T18:27:57.931Z,41.55
2023-03-06T18:30:36.126Z,42.10
2023-03-06T18:33:10.261Z,42.71
2023-03-06T18:35:44.341Z,43.65
2023-03-06T18:38:17.901Z,44.18
2023-03-06T18:40:55.487Z,44.21
2023-03-06T18:43:31.333Z,45.09
2023-03-06T18:46:17.821Z,46.08
2023-03-06T18:48:52.811Z,46.76
2023-03-06T18:51:29.286Z,47.80
2023-03-06T18:54:02.891Z,48.83
2023-03-06T18:56:38.695Z,49.81
2023-03-06T18:59:10.859Z,50.66
2023-03-06T19:01:49.797Z,50.55
2023-03-06T19:04:23.865Z,50.80
2023-03-06T19:07:00.248Z,51.22
2023-03-06T19:09:31.991Z,50.87
2023-03-06T19:12:07.144Z,50.91
2023-03-06T19:14:44.340Z,51.02
2023-03-06T19:17:22.847Z,51.25
2023-03-06T19:19:58.984Z,51.97
2023-03-06T19:22:37.691Z,52.04
2023-03-06T19:25:09.896Z,51.94
2023-03-06T19:27:49.789Z,51.91
2023-03-06T19:30:25.854Z,51.40
2023-03-06T19:33:10.615Z,51.21
2023-03-06T19:35:45.419Z,51.65
2023-03-06T19:38:28.896Z,52.22
2023-03-06T19:41:07.119Z,52.02
2023-03-06T19:43:47.081Z,52.69
2023-03-06T19:46:27.033Z,52.77
2023-03-06T19:49:16.320Z,52.97
2023-03-06T19:51:51.227Z,53.21
2023-03-06T19:54:23.847Z,52.99
2023-03-06T19:57:06.325Z,53.92
2023-03-06T19:59:40.533Z,54.31
2023-03-06T20:02:26.731Z,54.42
2023-03-06T20:05:03.180Z,54.84
2023-03-06T20:07:35.662Z,55.12
2023-03-06T20:10:09.410Z,55.68
2023-03-06T20:13:00.757Z,55.68
2023-03-06T20:15:35.263Z,55.76
2023-03-06T20:18:20.505Z,55.19
2023-03-06T20:21:10.593Z,54.84
2023-03-06T20:23:45.687Z,55.11
2023-03-06T20:26:20.481Z,55.09
2023-03-06T20:28:55.640Z,54.47
2023-03-06T20:31:30.963Z,54.63
2023-03-06T20:34:06.171Z,55.17
2023-03-06T20:36:50.861Z,55.35
2023-03-06T20:39:28.717Z,55.78
2023-03-06T20:42:00.912Z,55.93
2023-03-06T20:44:36.373Z,56.48
2023-03-06T20:47:14.270Z,56.63
2023-03-06T20:49:51.535Z,57.14
2023-03-06T20:52:32.096Z,57.61
2023-03-06T20:55:07.373Z,57.19
2023-03-06T20:57:42.233Z,56.67
2023-03-06T21:00:21.117Z,56.97
2023-03-06T21:03:00.393Z,56.64
2023-03-06T21:05:31.046Z,56.75
2023-03-06T21:08:09.274Z,56.77
2023-03-06T21:10:51.512Z,56.51
2023-03-06T21:13:25.282Z,56.21
2023-03-06T21:15:59.986Z,56.70
2023-03-06T21:18:32.445Z,56.61
2023-03-06T21:21:04.436Z,56.44
2023-03-06T21:23:43.921Z,56.62
2023-03-06T21:26:16.264Z,56.57
2023-03-06T21:28:53.856Z,56.19
2023-03-06T21:31:33.580Z,56.18
2023-03-06T21:34:14.336Z,56.66
2023-03-06T21:36:48.778Z,56.63
2023-03-06T21:39:35.561Z,56.48
2023-03-06T21:42:10.875Z,56.56
2023-03-06T21:44:44.864Z,56.97
2023-03-06T21:47:28.571Z,56.98
2023-03-06T21:50:08.721Z,55.80
2023-03-06T21:52:54.447Z,57.38
2023-03-06T21:55:49.667Z,58.59
2023-03-06T21:58:27.469Z,60.28
2023-03-06T22:01:11.937Z,61.13
2023-03-06T22:03:47.701Z,62.26
2023-03-06T22:06:25.568Z,63.41
2023-03-06T22:09:04.808Z,63.90
2023-03-06T22:11:55.030Z,63.89
2023-03-06T22:14:40.645Z,63.88
2023-03-06T22:17:18.259Z,64.32
2023-03-06T22:19:52.238Z,64.13
2023-03-06T22:22:32.492Z,64.63
2023-03-06T22:25:08.142Z,64.69
2023-03-06T22:28:01.232Z,65.04
2023-03-06T22:30:40.583Z,65.45
2023-03-06T22:33:15.840Z,64.45
2023-03-06T22:36:16.136Z,64.64
2023-03-06T22:39:00.234Z,64.71
2023-03-06T22:41:49.235Z,64.84
2023-03-06T22:44:28.325Z,64.84
2023-03-06T22:47:07.532Z,65.21
2023-03-06T22:49:41.050Z,65.16
2023-03-06T22:52:15.192Z,65.15
2023-03-06T22:54:56.778Z,65.41
2023-03-06T22:57:33.462Z,65.70
2023-03-06T23:00:24.201Z,65.79
2023-03-06T23:03:05.027Z,66.11
2023-03-06T23:05:36.965Z,66.75
2023-03-06T23:08:19.993Z,66.69
2023-03-06T23:11:00.709Z,66.71
2023-03-06T23:14:01.841Z,67.26
2023-03-06T23:17:02.804Z,67.36
2023-03-06T23:20:16.829Z,67.32
2023-03-06T23:23:15.129Z,67.60
2023-03-06T23:25:52.641Z,67.82
2023-03-06T23:28:30.161Z,67.81
2023-03-06T23:31:11.128Z,68.24
2023-03-06T23:34:05.716Z,68.57
2023-03-06T23:36:46.983Z,69.46
2023-03-06T23:39:23.229Z,70.21
2023-03-06T23:42:05.469Z,70.29
2023-03-06T23:44:42.341Z,70.73
2023-03-06T23:47:21.029Z,71.10
2023-03-06T23:50:07.578Z,71.10
2023-03-06T23:53:17.231Z,71.49
2023-03-06T23:55:58.089Z,71.88
2023-03-06T23:58:35.516Z,71.65
